sensor_id;sensor_type;location;lat;lon;timestamp;P1;durP1;ratioP1;P2;durP2;ratioP2
61317;SDS011;47201;40.428;-8.436;2024-01-06T00:00:41;47.25;;;26.58;;
61317;SDS011;47201;40.428;-8.436;2024-01-06T00:03:40;51.40;;;27.73;;
61317;SDS011;47201;40.428;-8.436;2024-01-06T00:06:39;47.78;;;25.33;;
61317;SDS011;47201;40.428;-8.436;2024-01-06T00:09:38;47.80;;;24.73;;
61317;SDS011;47201;40.428;-8.436;2024-01-06T00:12:37;41.85;;;21.73;;
61317;SDS011;47201;40.428;-8.436;2024-01-06T00:15:36;46.63;;;23.65;;
61317;SDS011;47201;40.428;-8.436;2024-01-06T00:18:36;40.05;;;21.08;;
61317;SDS011;47201;40.428;-8.436;2024-01-06T00:21:35;38.33;;;20.05;;
61317;SDS011;47201;40.428;-8.436;2024-01-06T00:24:35;40.33;;;20.58;;
61317;SDS011;47201;40.428;-8.436;2024-01-06T00:27:34;36.30;;;20.45;;
61317;SDS011;47201;40.428;-8.436;2024-01-06T00:30:33;37.45;;;20.55;;
61317;SDS011;47201;40.428;-8.436;2024-01-06T00:33:33;34.55;;;19.17;;
61317;SDS011;47201;40.428;-8.436;2024-01-06T00:36:32;41.38;;;21.52;;
61317;SDS011;47201;40.428;-8.436;2024-01-06T00:39:31;36.15;;;19.33;;
61317;SDS011;47201;40.428;-8.436;2024-01-06T00:42:32;44.88;;;21.65;;
61317;SDS011;47201;40.428;-8.436;2024-01-06T00:45:31;37.10;;;19.58;;
61317;SDS011;47201;40.428;-8.436;2024-01-06T00:48:30;30.55;;;18.30;;
61317;SDS011;47201;40.428;-8.436;2024-01-06T00:51:29;36.78;;;18.58;;
61317;SDS011;47201;40.428;-8.436;2024-01-06T00:54:29;60.15;;;18.85;;
61317;SDS011;47201;40.428;-8.436;2024-01-06T00:57:28;40.63;;;22.63;;
61317;SDS011;47201;40.428;-8.436;2024-01-06T01:00:27;35.55;;;22.00;;
61317;SDS011;47201;40.428;-8.436;2024-01-06T01:03:26;42.38;;;22.88;;
61317;SDS011;47201;40.428;-8.436;2024-01-06T01:06:28;49.55;;;28.15;;
61317;SDS011;47201;40.428;-8.436;2024-01-06T01:09:28;54.65;;;26.42;;
61317;SDS011;47201;40.428;-8.436;2024-01-06T01:12:27;43.42;;;21.65;;
61317;SDS011;47201;40.428;-8.436;2024-01-06T01:15:29;25.60;;;16.65;;
61317;SDS011;47201;40.428;-8.436;2024-01-06T01:18:28;53.03;;;17.80;;
61317;SDS011;47201;40.428;-8.436;2024-01-06T01:21:27;39.92;;;18.58;;
61317;SDS011;47201;40.428;-8.436;2024-01-06T01:24:27;32.72;;;21.02;;
61317;SDS011;47201;40.428;-8.436;2024-01-06T01:27:28;46.28;;;26.30;;
61317;SDS011;47201;40.428;-8.436;2024-01-06T01:30:27;50.57;;;28.07;;
61317;SDS011;47201;40.428;-8.436;2024-01-06T01:33:29;63.50;;;29.90;;
61317;SDS011;47201;40.428;-8.436;2024-01-06T01:36:28;45.03;;;25.35;;
61317;SDS011;47201;40.428;-8.436;2024-01-06T01:39:28;54.67;;;30.15;;
61317;SDS011;47201;40.428;-8.436;2024-01-06T01:42:30;58.03;;;31.05;;
61317;SDS011;47201;40.428;-8.436;2024-01-06T01:45:29;60.45;;;32.55;;
61317;SDS011;47201;40.428;-8.436;2024-01-06T01:48:29;61.08;;;32.35;;
61317;SDS011;47201;40.428;-8.436;2024-01-06T01:51:30;55.95;;;32.70;;
61317;SDS011;47201;40.428;-8.436;2024-01-06T01:54:30;38.38;;;20.40;;
61317;SDS011;47201;40.428;-8.436;2024-01-06T01:57:29;29.17;;;18.45;;
61317;SDS011;47201;40.428;-8.436;2024-01-06T02:00:29;32.25;;;18.10;;
61317;SDS011;47201;40.428;-8.436;2024-01-06T02:03:29;42.25;;;20.65;;
61317;SDS011;47201;40.428;-8.436;2024-01-06T02:06:29;33.15;;;21.45;;
61317;SDS011;47201;40.428;-8.436;2024-01-06T02:09:28;35.75;;;21.02;;
61317;SDS011;47201;40.428;-8.436;2024-01-06T02:12:28;65.90;;;19.73;;
61317;SDS011;47201;40.428;-8.436;2024-01-06T02:15:37;39.90;;;19.25;;
61317;SDS011;47201;40.428;-8.436;2024-01-06T02:18:36;32.42;;;17.92;;
61317;SDS011;47201;40.428;-8.436;2024-01-06T02:21:35;33.28;;;20.45;;
61317;SDS011;47201;40.428;-8.436;2024-01-06T02:24:37;33.15;;;20.50;;
61317;SDS011;47201;40.428;-8.436;2024-01-06T02:27:37;28.48;;;15.45;;
61317;SDS011;47201;40.428;-8.436;2024-01-06T02:30:36;36.22;;;16.77;;
61317;SDS011;47201;40.428;-8.436;2024-01-06T02:33:35;32.97;;;17.40;;
61317;SDS011;47201;40.428;-8.436;2024-01-06T02:36:34;25.95;;;14.35;;
61317;SDS011;47201;40.428;-8.436;2024-01-06T02:39:34;33.10;;;13.75;;
61317;SDS011;47201;40.428;-8.436;2024-01-06T02:42:33;32.22;;;16.23;;
61317;SDS011;47201;40.428;-8.436;2024-01-06T02:45:32;24.77;;;14.70;;
61317;SDS011;47201;40.428;-8.436;2024-01-06T02:48:31;23.08;;;13.57;;
61317;SDS011;47201;40.428;-8.436;2024-01-06T02:51:30;26.00;;;11.40;;
61317;SDS011;47201;40.428;-8.436;2024-01-06T02:54:30;23.00;;;11.55;;
61317;SDS011;47201;40.428;-8.436;2024-01-06T02:57:31;26.30;;;14.15;;
61317;SDS011;47201;40.428;-8.436;2024-01-06T03:00:31;31.27;;;15.63;;
61317;SDS011;47201;40.428;-8.436;2024-01-06T03:03:31;31.40;;;14.95;;
61317;SDS011;47201;40.428;-8.436;2024-01-06T03:06:31;30.65;;;16.63;;
61317;SDS011;47201;40.428;-8.436;2024-01-06T03:09:30;31.98;;;15.40;;
61317;SDS011;47201;40.428;-8.436;2024-01-06T03:12:29;23.98;;;13.60;;
61317;SDS011;47201;40.428;-8.436;2024-01-06T03:15:28;36.00;;;14.88;;
61317;SDS011;47201;40.428;-8.436;2024-01-06T03:18:27;28.60;;;15.52;;
61317;SDS011;47201;40.428;-8.436;2024-01-06T03:21:27;25.65;;;15.48;;
61317;SDS011;47201;40.428;-8.436;2024-01-06T03:24:27;28.52;;;15.68;;
61317;SDS011;47201;40.428;-8.436;2024-01-06T03:30:31;24.17;;;14.85;;
61317;SDS011;47201;40.428;-8.436;2024-01-06T03:33:30;45.88;;;15.40;;
61317;SDS011;47201;40.428;-8.436;2024-01-06T03:36:29;31.35;;;15.63;;
61317;SDS011;47201;40.428;-8.436;2024-01-06T03:39:28;29.33;;;16.63;;
61317;SDS011;47201;40.428;-8.436;2024-01-06T03:42:28;27.02;;;15.50;;
61317;SDS011;47201;40.428;-8.436;2024-01-06T03:45:27;38.35;;;15.27;;
61317;SDS011;47201;40.428;-8.436;2024-01-06T03:48:29;25.80;;;16.42;;
61317;SDS011;47201;40.428;-8.436;2024-01-06T03:51:28;26.17;;;15.98;;
61317;SDS011;47201;40.428;-8.436;2024-01-06T03:54:27;21.77;;;13.25;;
61317;SDS011;47201;40.428;-8.436;2024-01-06T03:57:29;26.13;;;13.68;;
61317;SDS011;47201;40.428;-8.436;2024-01-06T04:00:29;19.20;;;13.63;;
61317;SDS011;47201;40.428;-8.436;2024-01-06T04:03:29;24.17;;;13.20;;
61317;SDS011;47201;40.428;-8.436;2024-01-06T04:06:28;60.45;;;13.18;;
61317;SDS011;47201;40.428;-8.436;2024-01-06T04:09:28;24.80;;;13.52;;
61317;SDS011;47201;40.428;-8.436;2024-01-06T04:12:27;17.55;;;12.18;;
61317;SDS011;47201;40.428;-8.436;2024-01-06T04:15:29;16.50;;;11.63;;
61317;SDS011;47201;40.428;-8.436;2024-01-06T04:18:28;34.20;;;12.23;;
61317;SDS011;47201;40.428;-8.436;2024-01-06T04:21:28;25.27;;;10.73;;
61317;SDS011;47201;40.428;-8.436;2024-01-06T04:24:27;14.75;;;11.32;;
61317;SDS011;47201;40.428;-8.436;2024-01-06T04:27:29;15.40;;;10.88;;
61317;SDS011;47201;40.428;-8.436;2024-01-06T04:30:28;16.50;;;10.80;;
61317;SDS011;47201;40.428;-8.436;2024-01-06T04:33:27;22.17;;;9.93;;
61317;SDS011;47201;40.428;-8.436;2024-01-06T04:36:29;18.25;;;11.10;;
61317;SDS011;47201;40.428;-8.436;2024-01-06T04:39:28;18.40;;;8.90;;
61317;SDS011;47201;40.428;-8.436;2024-01-06T04:42:28;22.65;;;9.63;;
61317;SDS011;47201;40.428;-8.436;2024-01-06T04:45:27;26.75;;;9.65;;
61317;SDS011;47201;40.428;-8.436;2024-01-06T04:48:29;24.02;;;9.07;;
61317;SDS011;47201;40.428;-8.436;2024-01-06T04:51:28;22.35;;;8.35;;
61317;SDS011;47201;40.428;-8.436;2024-01-06T04:54:27;35.05;;;9.52;;
61317;SDS011;47201;40.428;-8.436;2024-01-06T04:57:26;17.17;;;8.10;;
61317;SDS011;47201;40.428;-8.436;2024-01-06T05:00:28;22.52;;;7.95;;
61317;SDS011;47201;40.428;-8.436;2024-01-06T05:03:27;17.60;;;8.98;;
61317;SDS011;47201;40.428;-8.436;2024-01-06T05:06:27;15.23;;;6.78;;
61317;SDS011;47201;40.428;-8.436;2024-01-06T05:09:29;9.98;;;6.60;;
61317;SDS011;47201;40.428;-8.436;2024-01-06T05:12:28;12.30;;;6.88;;
61317;SDS011;47201;40.428;-8.436;2024-01-06T05:15:27;19.38;;;8.95;;
61317;SDS011;47201;40.428;-8.436;2024-01-06T05:18:27;14.85;;;8.15;;
61317;SDS011;47201;40.428;-8.436;2024-01-06T05:21:29;16.27;;;8.80;;
61317;SDS011;47201;40.428;-8.436;2024-01-06T05:24:29;21.05;;;9.60;;
61317;SDS011;47201;40.428;-8.436;2024-01-06T05:27:28;20.27;;;9.20;;
61317;SDS011;47201;40.428;-8.436;2024-01-06T05:30:27;18.95;;;8.98;;
61317;SDS011;47201;40.428;-8.436;2024-01-06T05:33:27;33.50;;;9.75;;
61317;SDS011;47201;40.428;-8.436;2024-01-06T05:36:29;39.45;;;11.48;;
61317;SDS011;47201;40.428;-8.436;2024-01-06T05:39:28;21.10;;;10.40;;
61317;SDS011;47201;40.428;-8.436;2024-01-06T05:42:27;24.40;;;12.57;;
61317;SDS011;47201;40.428;-8.436;2024-01-06T05:45:27;19.83;;;11.20;;
61317;SDS011;47201;40.428;-8.436;2024-01-06T05:48:29;22.17;;;12.05;;
61317;SDS011;47201;40.428;-8.436;2024-01-06T05:51:28;23.17;;;12.25;;
61317;SDS011;47201;40.428;-8.436;2024-01-06T05:54:28;22.02;;;11.82;;
61317;SDS011;47201;40.428;-8.436;2024-01-06T05:57:27;26.65;;;13.00;;
61317;SDS011;47201;40.428;-8.436;2024-01-06T06:00:29;19.45;;;11.43;;
61317;SDS011;47201;40.428;-8.436;2024-01-06T06:03:28;19.55;;;12.25;;
61317;SDS011;47201;40.428;-8.436;2024-01-06T06:06:27;21.00;;;10.30;;
61317;SDS011;47201;40.428;-8.436;2024-01-06T06:09:30;24.30;;;9.57;;
61317;SDS011;47201;40.428;-8.436;2024-01-06T06:12:40;17.83;;;8.00;;
61317;SDS011;47201;40.428;-8.436;2024-01-06T06:15:43;10.45;;;7.55;;
61317;SDS011;47201;40.428;-8.436;2024-01-06T06:18:42;9.55;;;7.03;;
61317;SDS011;47201;40.428;-8.436;2024-01-06T06:21:41;6.85;;;5.63;;
61317;SDS011;47201;40.428;-8.436;2024-01-06T06:24:40;10.23;;;5.90;;
61317;SDS011;47201;40.428;-8.436;2024-01-06T06:27:39;6.68;;;4.90;;
61317;SDS011;47201;40.428;-8.436;2024-01-06T06:30:39;7.82;;;5.25;;
61317;SDS011;47201;40.428;-8.436;2024-01-06T06:33:38;7.50;;;5.20;;
61317;SDS011;47201;40.428;-8.436;2024-01-06T06:36:37;5.50;;;4.97;;
61317;SDS011;47201;40.428;-8.436;2024-01-06T06:39:37;6.43;;;5.45;;
61317;SDS011;47201;40.428;-8.436;2024-01-06T06:42:36;47.85;;;8.55;;
61317;SDS011;47201;40.428;-8.436;2024-01-06T06:45:35;24.15;;;7.03;;
61317;SDS011;47201;40.428;-8.436;2024-01-06T06:48:34;19.27;;;6.15;;
61317;SDS011;47201;40.428;-8.436;2024-01-06T06:51:34;14.93;;;5.53;;
61317;SDS011;47201;40.428;-8.436;2024-01-06T06:54:33;70.18;;;6.63;;
61317;SDS011;47201;40.428;-8.436;2024-01-06T06:57:32;6.55;;;5.65;;
61317;SDS011;47201;40.428;-8.436;2024-01-06T07:00:31;5.00;;;4.60;;
61317;SDS011;47201;40.428;-8.436;2024-01-06T07:03:31;8.77;;;6.00;;
61317;SDS011;47201;40.428;-8.436;2024-01-06T07:06:30;8.00;;;5.88;;
61317;SDS011;47201;40.428;-8.436;2024-01-06T07:09:29;9.70;;;5.93;;
61317;SDS011;47201;40.428;-8.436;2024-01-06T07:12:28;10.93;;;6.55;;
61317;SDS011;47201;40.428;-8.436;2024-01-06T07:15:27;19.42;;;6.57;;
61317;SDS011;47201;40.428;-8.436;2024-01-06T07:18:27;10.55;;;6.65;;
61317;SDS011;47201;40.428;-8.436;2024-01-06T07:21:29;8.93;;;5.50;;
61317;SDS011;47201;40.428;-8.436;2024-01-06T07:24:28;6.68;;;6.00;;
61317;SDS011;47201;40.428;-8.436;2024-01-06T07:27:27;6.38;;;5.75;;
61317;SDS011;47201;40.428;-8.436;2024-01-06T07:30:26;9.32;;;5.38;;
61317;SDS011;47201;40.428;-8.436;2024-01-06T07:33:29;9.52;;;5.57;;
61317;SDS011;47201;40.428;-8.436;2024-01-06T07:36:28;5.50;;;5.00;;
61317;SDS011;47201;40.428;-8.436;2024-01-06T07:39:27;6.22;;;5.68;;
61317;SDS011;47201;40.428;-8.436;2024-01-06T07:42:29;6.22;;;5.20;;
61317;SDS011;47201;40.428;-8.436;2024-01-06T07:45:28;6.72;;;5.75;;
61317;SDS011;47201;40.428;-8.436;2024-01-06T07:48:28;5.60;;;5.10;;
61317;SDS011;47201;40.428;-8.436;2024-01-06T07:51:27;6.25;;;5.25;;
61317;SDS011;47201;40.428;-8.436;2024-01-06T07:54:30;9.70;;;7.53;;
61317;SDS011;47201;40.428;-8.436;2024-01-06T07:57:29;10.63;;;6.15;;
61317;SDS011;47201;40.428;-8.436;2024-01-06T08:00:28;8.73;;;5.78;;
61317;SDS011;47201;40.428;-8.436;2024-01-06T08:03:28;7.47;;;4.05;;
61317;SDS011;47201;40.428;-8.436;2024-01-06T08:06:27;7.88;;;4.55;;
61317;SDS011;47201;40.428;-8.436;2024-01-06T08:09:29;5.88;;;5.13;;
61317;SDS011;47201;40.428;-8.436;2024-01-06T08:12:28;6.63;;;5.70;;
61317;SDS011;47201;40.428;-8.436;2024-01-06T08:15:27;5.80;;;5.25;;
61317;SDS011;47201;40.428;-8.436;2024-01-06T08:18:30;8.45;;;5.38;;
61317;SDS011;47201;40.428;-8.436;2024-01-06T08:21:30;6.00;;;5.35;;
61317;SDS011;47201;40.428;-8.436;2024-01-06T08:24:29;6.97;;;5.90;;
61317;SDS011;47201;40.428;-8.436;2024-01-06T08:27:29;6.38;;;5.55;;
61317;SDS011;47201;40.428;-8.436;2024-01-06T08:30:28;5.57;;;4.68;;
61317;SDS011;47201;40.428;-8.436;2024-01-06T08:33:27;5.63;;;5.13;;
61317;SDS011;47201;40.428;-8.436;2024-01-06T08:36:27;10.13;;;4.78;;
61317;SDS011;47201;40.428;-8.436;2024-01-06T08:39:29;4.88;;;4.47;;
61317;SDS011;47201;40.428;-8.436;2024-01-06T08:42:28;6.03;;;4.70;;
61317;SDS011;47201;40.428;-8.436;2024-01-06T08:45:27;6.03;;;4.43;;
61317;SDS011;47201;40.428;-8.436;2024-01-06T08:48:30;4.57;;;4.18;;
61317;SDS011;47201;40.428;-8.436;2024-01-06T08:51:30;10.63;;;3.20;;
61317;SDS011;47201;40.428;-8.436;2024-01-06T08:54:30;4.20;;;3.80;;
61317;SDS011;47201;40.428;-8.436;2024-01-06T08:57:29;6.97;;;4.78;;
61317;SDS011;47201;40.428;-8.436;2024-01-06T09:00:28;4.80;;;4.43;;
61317;SDS011;47201;40.428;-8.436;2024-01-06T09:03:27;8.25;;;5.47;;
61317;SDS011;47201;40.428;-8.436;2024-01-06T09:06:26;5.57;;;4.82;;
61317;SDS011;47201;40.428;-8.436;2024-01-06T09:09:29;7.68;;;5.80;;
61317;SDS011;47201;40.428;-8.436;2024-01-06T09:12:29;8.15;;;6.25;;
61317;SDS011;47201;40.428;-8.436;2024-01-06T09:15:28;8.70;;;6.03;;
61317;SDS011;47201;40.428;-8.436;2024-01-06T09:18:27;12.18;;;3.42;;
61317;SDS011;47201;40.428;-8.436;2024-01-06T09:21:28;3.80;;;2.90;;
61317;SDS011;47201;40.428;-8.436;2024-01-06T09:24:27;3.25;;;2.95;;
61317;SDS011;47201;40.428;-8.436;2024-01-06T09:27:29;2.92;;;2.55;;
61317;SDS011;47201;40.428;-8.436;2024-01-06T09:30:29;3.28;;;2.58;;
61317;SDS011;47201;40.428;-8.436;2024-01-06T09:33:28;7.43;;;2.40;;
61317;SDS011;47201;40.428;-8.436;2024-01-06T09:36:30;10.18;;;2.55;;
61317;SDS011;47201;40.428;-8.436;2024-01-06T09:42:32;3.67;;;2.25;;
61317;SDS011;47201;40.428;-8.436;2024-01-06T09:45:33;4.93;;;2.20;;
61317;SDS011;47201;40.428;-8.436;2024-01-06T09:48:32;2.58;;;2.38;;
61317;SDS011;47201;40.428;-8.436;2024-01-06T09:51:36;2.67;;;2.53;;
61317;SDS011;47201;40.428;-8.436;2024-01-06T09:54:43;6.45;;;3.45;;
61317;SDS011;47201;40.428;-8.436;2024-01-06T09:57:46;4.22;;;2.50;;
61317;SDS011;47201;40.428;-8.436;2024-01-06T10:00:48;2.35;;;2.22;;
61317;SDS011;47201;40.428;-8.436;2024-01-06T10:03:47;3.05;;;2.20;;
61317;SDS011;47201;40.428;-8.436;2024-01-06T10:06:46;3.40;;;2.40;;
61317;SDS011;47201;40.428;-8.436;2024-01-06T10:09:46;4.40;;;2.40;;
61317;SDS011;47201;40.428;-8.436;2024-01-06T10:12:45;2.33;;;2.13;;
61317;SDS011;47201;40.428;-8.436;2024-01-06T10:15:44;2.42;;;2.03;;
61317;SDS011;47201;40.428;-8.436;2024-01-06T10:18:44;6.60;;;2.72;;
61317;SDS011;47201;40.428;-8.436;2024-01-06T10:21:45;8.45;;;2.38;;
61317;SDS011;47201;40.428;-8.436;2024-01-06T10:24:45;3.25;;;2.30;;
61317;SDS011;47201;40.428;-8.436;2024-01-06T10:27:45;2.75;;;2.17;;
61317;SDS011;47201;40.428;-8.436;2024-01-06T10:30:44;4.40;;;2.20;;
61317;SDS011;47201;40.428;-8.436;2024-01-06T10:33:43;4.32;;;2.53;;
61317;SDS011;47201;40.428;-8.436;2024-01-06T10:36:42;2.45;;;2.25;;
61317;SDS011;47201;40.428;-8.436;2024-01-06T10:39:42;2.92;;;2.63;;
61317;SDS011;47201;40.428;-8.436;2024-01-06T10:42:58;2.88;;;2.20;;
61317;SDS011;47201;40.428;-8.436;2024-01-06T10:46:04;2.65;;;2.40;;
61317;SDS011;47201;40.428;-8.436;2024-01-06T10:49:04;3.08;;;2.17;;
61317;SDS011;47201;40.428;-8.436;2024-01-06T10:52:04;4.05;;;2.60;;
61317;SDS011;47201;40.428;-8.436;2024-01-06T10:55:04;2.75;;;2.60;;
61317;SDS011;47201;40.428;-8.436;2024-01-06T10:58:04;3.83;;;2.53;;
61317;SDS011;47201;40.428;-8.436;2024-01-06T11:01:04;4.07;;;2.60;;
61317;SDS011;47201;40.428;-8.436;2024-01-06T11:04:04;7.68;;;3.65;;
61317;SDS011;47201;40.428;-8.436;2024-01-06T11:07:03;2.92;;;2.25;;
61317;SDS011;47201;40.428;-8.436;2024-01-06T11:13:11;9.43;;;3.72;;
61317;SDS011;47201;40.428;-8.436;2024-01-06T11:16:33;5.80;;;3.10;;
61317;SDS011;47201;40.428;-8.436;2024-01-06T11:19:55;2.97;;;2.40;;
61317;SDS011;47201;40.428;-8.436;2024-01-06T11:23:22;3.28;;;2.70;;
61317;SDS011;47201;40.428;-8.436;2024-01-06T11:26:25;4.68;;;2.38;;
61317;SDS011;47201;40.428;-8.436;2024-01-06T11:29:28;3.90;;;2.83;;
61317;SDS011;47201;40.428;-8.436;2024-01-06T11:32:30;2.72;;;2.53;;
61317;SDS011;47201;40.428;-8.436;2024-01-06T11:35:30;4.50;;;2.63;;
61317;SDS011;47201;40.428;-8.436;2024-01-06T11:38:33;4.88;;;3.35;;
61317;SDS011;47201;40.428;-8.436;2024-01-06T11:41:49;3.47;;;2.67;;
61317;SDS011;47201;40.428;-8.436;2024-01-06T11:45:03;3.95;;;2.80;;
61317;SDS011;47201;40.428;-8.436;2024-01-06T11:48:03;4.85;;;2.67;;
61317;SDS011;47201;40.428;-8.436;2024-01-06T11:51:03;6.75;;;3.45;;
61317;SDS011;47201;40.428;-8.436;2024-01-06T11:54:02;4.47;;;3.35;;
61317;SDS011;47201;40.428;-8.436;2024-01-06T11:57:02;4.55;;;3.28;;
61317;SDS011;47201;40.428;-8.436;2024-01-06T12:00:03;3.35;;;2.97;;
61317;SDS011;47201;40.428;-8.436;2024-01-06T12:03:02;7.20;;;2.85;;
61317;SDS011;47201;40.428;-8.436;2024-01-06T12:06:03;4.28;;;2.97;;
61317;SDS011;47201;40.428;-8.436;2024-01-06T12:09:07;3.33;;;2.90;;
61317;SDS011;47201;40.428;-8.436;2024-01-06T12:12:08;5.18;;;3.08;;
61317;SDS011;47201;40.428;-8.436;2024-01-06T12:15:10;8.80;;;4.53;;
61317;SDS011;47201;40.428;-8.436;2024-01-06T12:18:10;2.88;;;2.53;;
61317;SDS011;47201;40.428;-8.436;2024-01-06T12:21:09;2.97;;;2.47;;
61317;SDS011;47201;40.428;-8.436;2024-01-06T12:24:15;4.30;;;2.40;;
61317;SDS011;47201;40.428;-8.436;2024-01-06T12:27:16;4.25;;;2.95;;
61317;SDS011;47201;40.428;-8.436;2024-01-06T12:30:16;8.75;;;3.38;;
61317;SDS011;47201;40.428;-8.436;2024-01-06T12:33:15;4.72;;;3.28;;
61317;SDS011;47201;40.428;-8.436;2024-01-06T12:36:15;8.43;;;2.97;;
61317;SDS011;47201;40.428;-8.436;2024-01-06T12:39:14;6.97;;;4.13;;
61317;SDS011;47201;40.428;-8.436;2024-01-06T12:42:15;4.80;;;2.80;;
61317;SDS011;47201;40.428;-8.436;2024-01-06T12:45:14;5.50;;;4.28;;
61317;SDS011;47201;40.428;-8.436;2024-01-06T12:48:13;7.93;;;4.28;;
61317;SDS011;47201;40.428;-8.436;2024-01-06T12:51:13;6.88;;;3.10;;
61317;SDS011;47201;40.428;-8.436;2024-01-06T12:54:12;3.20;;;2.75;;
61317;SDS011;47201;40.428;-8.436;2024-01-06T12:57:11;6.20;;;3.22;;
61317;SDS011;47201;40.428;-8.436;2024-01-06T13:00:11;8.15;;;2.95;;
61317;SDS011;47201;40.428;-8.436;2024-01-06T13:03:11;7.15;;;4.78;;
61317;SDS011;47201;40.428;-8.436;2024-01-06T13:06:10;3.72;;;2.72;;
61317;SDS011;47201;40.428;-8.436;2024-01-06T13:09:09;5.32;;;3.75;;
61317;SDS011;47201;40.428;-8.436;2024-01-06T13:12:09;6.45;;;3.92;;
61317;SDS011;47201;40.428;-8.436;2024-01-06T13:15:08;4.00;;;2.83;;
61317;SDS011;47201;40.428;-8.436;2024-01-06T13:18:07;5.90;;;4.40;;
61317;SDS011;47201;40.428;-8.436;2024-01-06T13:21:06;6.20;;;4.22;;
61317;SDS011;47201;40.428;-8.436;2024-01-06T13:24:06;7.20;;;4.65;;
61317;SDS011;47201;40.428;-8.436;2024-01-06T13:27:07;7.75;;;5.60;;
61317;SDS011;47201;40.428;-8.436;2024-01-06T13:30:07;9.15;;;4.72;;
61317;SDS011;47201;40.428;-8.436;2024-01-06T13:33:07;9.77;;;5.20;;
61317;SDS011;47201;40.428;-8.436;2024-01-06T13:36:07;8.18;;;4.88;;
61317;SDS011;47201;40.428;-8.436;2024-01-06T13:39:07;6.25;;;3.63;;
61317;SDS011;47201;40.428;-8.436;2024-01-06T13:42:07;6.00;;;3.20;;
61317;SDS011;47201;40.428;-8.436;2024-01-06T13:45:09;3.40;;;3.05;;
61317;SDS011;47201;40.428;-8.436;2024-01-06T13:48:08;9.60;;;4.60;;
61317;SDS011;47201;40.428;-8.436;2024-01-06T13:51:08;6.53;;;4.00;;
61317;SDS011;47201;40.428;-8.436;2024-01-06T13:54:10;5.43;;;3.60;;
61317;SDS011;47201;40.428;-8.436;2024-01-06T13:57:10;3.60;;;2.72;;
61317;SDS011;47201;40.428;-8.436;2024-01-06T14:00:11;6.07;;;2.88;;
61317;SDS011;47201;40.428;-8.436;2024-01-06T14:03:11;4.70;;;2.70;;
61317;SDS011;47201;40.428;-8.436;2024-01-06T14:06:10;6.63;;;3.30;;
61317;SDS011;47201;40.428;-8.436;2024-01-06T14:09:10;4.35;;;1.80;;
61317;SDS011;47201;40.428;-8.436;2024-01-06T14:12:09;3.30;;;2.13;;
61317;SDS011;47201;40.428;-8.436;2024-01-06T14:15:09;2.42;;;1.88;;
61317;SDS011;47201;40.428;-8.436;2024-01-06T14:18:08;3.88;;;2.78;;
61317;SDS011;47201;40.428;-8.436;2024-01-06T14:21:10;2.88;;;2.20;;
61317;SDS011;47201;40.428;-8.436;2024-01-06T14:24:09;3.42;;;1.75;;
61317;SDS011;47201;40.428;-8.436;2024-01-06T14:27:08;3.05;;;2.00;;
61317;SDS011;47201;40.428;-8.436;2024-01-06T14:30:08;3.80;;;2.65;;
61317;SDS011;47201;40.428;-8.436;2024-01-06T14:33:07;3.58;;;2.45;;
61317;SDS011;47201;40.428;-8.436;2024-01-06T14:36:06;2.28;;;2.08;;
61317;SDS011;47201;40.428;-8.436;2024-01-06T14:39:06;2.55;;;2.30;;
61317;SDS011;47201;40.428;-8.436;2024-01-06T14:42:07;2.85;;;1.95;;
61317;SDS011;47201;40.428;-8.436;2024-01-06T14:45:07;5.97;;;2.50;;
61317;SDS011;47201;40.428;-8.436;2024-01-06T14:48:06;2.78;;;1.88;;
61317;SDS011;47201;40.428;-8.436;2024-01-06T14:51:05;3.20;;;1.70;;
61317;SDS011;47201;40.428;-8.436;2024-01-06T14:54:05;5.20;;;2.45;;
61317;SDS011;47201;40.428;-8.436;2024-01-06T14:57:05;3.92;;;2.33;;
61317;SDS011;47201;40.428;-8.436;2024-01-06T15:00:05;2.50;;;1.70;;
61317;SDS011;47201;40.428;-8.436;2024-01-06T15:03:05;3.58;;;2.47;;
61317;SDS011;47201;40.428;-8.436;2024-01-06T15:06:05;4.28;;;2.35;;
61317;SDS011;47201;40.428;-8.436;2024-01-06T15:09:04;3.15;;;2.00;;
61317;SDS011;47201;40.428;-8.436;2024-01-06T15:12:07;4.53;;;2.20;;
61317;SDS011;47201;40.428;-8.436;2024-01-06T15:15:07;3.33;;;2.58;;
61317;SDS011;47201;40.428;-8.436;2024-01-06T15:18:06;2.08;;;1.90;;
61317;SDS011;47201;40.428;-8.436;2024-01-06T15:21:07;4.60;;;2.20;;
61317;SDS011;47201;40.428;-8.436;2024-01-06T15:24:07;5.10;;;2.25;;
61317;SDS011;47201;40.428;-8.436;2024-01-06T15:27:07;2.60;;;2.40;;
61317;SDS011;47201;40.428;-8.436;2024-01-06T15:30:06;3.05;;;2.65;;
61317;SDS011;47201;40.428;-8.436;2024-01-06T15:33:06;3.58;;;2.30;;
61317;SDS011;47201;40.428;-8.436;2024-01-06T15:36:05;3.47;;;2.75;;
61317;SDS011;47201;40.428;-8.436;2024-01-06T15:39:04;5.28;;;3.00;;
61317;SDS011;47201;40.428;-8.436;2024-01-06T15:42:04;7.03;;;4.28;;
61317;SDS011;47201;40.428;-8.436;2024-01-06T15:45:04;4.57;;;3.28;;
61317;SDS011;47201;40.428;-8.436;2024-01-06T15:48:04;4.05;;;3.38;;
61317;SDS011;47201;40.428;-8.436;2024-01-06T15:51:03;11.70;;;3.70;;
61317;SDS011;47201;40.428;-8.436;2024-01-06T15:54:05;4.18;;;3.28;;
61317;SDS011;47201;40.428;-8.436;2024-01-06T15:57:04;4.20;;;3.72;;
61317;SDS011;47201;40.428;-8.436;2024-01-06T16:00:04;6.82;;;3.30;;
61317;SDS011;47201;40.428;-8.436;2024-01-06T16:03:04;8.20;;;4.10;;
61317;SDS011;47201;40.428;-8.436;2024-01-06T16:06:03;4.60;;;3.13;;
61317;SDS011;47201;40.428;-8.436;2024-01-06T16:09:05;8.23;;;4.80;;
61317;SDS011;47201;40.428;-8.436;2024-01-06T16:12:05;4.60;;;3.70;;
61317;SDS011;47201;40.428;-8.436;2024-01-06T16:15:04;8.55;;;3.90;;
61317;SDS011;47201;40.428;-8.436;2024-01-06T16:18:04;4.18;;;3.00;;
61317;SDS011;47201;40.428;-8.436;2024-01-06T16:21:03;4.15;;;3.58;;
61317;SDS011;47201;40.428;-8.436;2024-01-06T16:24:03;4.65;;;4.10;;
61317;SDS011;47201;40.428;-8.436;2024-01-06T16:27:03;4.63;;;3.72;;
61317;SDS011;47201;40.428;-8.436;2024-01-06T16:30:02;5.97;;;4.07;;
61317;SDS011;47201;40.428;-8.436;2024-01-06T16:33:01;5.95;;;4.65;;
61317;SDS011;47201;40.428;-8.436;2024-01-06T16:36:01;4.35;;;3.70;;
61317;SDS011;47201;40.428;-8.436;2024-01-06T16:39:00;3.83;;;3.50;;
61317;SDS011;47201;40.428;-8.436;2024-01-06T16:41:59;3.50;;;2.42;;
61317;SDS011;47201;40.428;-8.436;2024-01-06T16:44:59;5.60;;;2.63;;
61317;SDS011;47201;40.428;-8.436;2024-01-06T16:47:58;4.53;;;3.10;;
61317;SDS011;47201;40.428;-8.436;2024-01-06T16:51:00;2.53;;;2.33;;
61317;SDS011;47201;40.428;-8.436;2024-01-06T16:56:58;4.03;;;2.03;;
61317;SDS011;47201;40.428;-8.436;2024-01-06T17:00:01;3.92;;;2.80;;
61317;SDS011;47201;40.428;-8.436;2024-01-06T17:03:00;3.50;;;2.53;;
61317;SDS011;47201;40.428;-8.436;2024-01-06T17:05:59;4.97;;;2.20;;
61317;SDS011;47201;40.428;-8.436;2024-01-06T17:08:59;4.57;;;2.45;;
61317;SDS011;47201;40.428;-8.436;2024-01-06T17:12:01;2.08;;;1.80;;
61317;SDS011;47201;40.428;-8.436;2024-01-06T17:15:00;3.35;;;2.90;;
61317;SDS011;47201;40.428;-8.436;2024-01-06T17:17:59;5.97;;;3.08;;
61317;SDS011;47201;40.428;-8.436;2024-01-06T17:20:59;3.53;;;1.95;;
61317;SDS011;47201;40.428;-8.436;2024-01-06T17:23:58;7.30;;;4.18;;
61317;SDS011;47201;40.428;-8.436;2024-01-06T17:26:59;16.38;;;10.32;;
61317;SDS011;47201;40.428;-8.436;2024-01-06T17:29:58;18.95;;;9.65;;
61317;SDS011;47201;40.428;-8.436;2024-01-06T17:33:00;18.40;;;10.95;;
61317;SDS011;47201;40.428;-8.436;2024-01-06T17:35:59;23.80;;;12.88;;
61317;SDS011;47201;40.428;-8.436;2024-01-06T17:38:59;17.33;;;10.85;;
61317;SDS011;47201;40.428;-8.436;2024-01-06T17:41:58;15.10;;;8.90;;
61317;SDS011;47201;40.428;-8.436;2024-01-06T17:45:00;11.95;;;8.20;;
61317;SDS011;47201;40.428;-8.436;2024-01-06T17:47:59;13.95;;;8.23;;
61317;SDS011;47201;40.428;-8.436;2024-01-06T17:50:58;12.65;;;10.20;;